sensor_id;sensor_type;location;lat;lon;timestamp;temperature;humidity
51559;DHT22;61650;48.882;2.092;2022-07-06T00:02:02;15.30;60.40
51559;DHT22;61650;48.882;2.092;2022-07-06T00:04:28;15.30;60.50
51559;DHT22;61650;48.882;2.092;2022-07-06T00:06:54;15.30;60.70
51559;DHT22;61650;48.882;2.092;2022-07-06T00:09:19;15.30;60.70
51559;DHT22;61650;48.882;2.092;2022-07-06T00:11:45;15.20;62.20
51559;DHT22;61650;48.882;2.092;2022-07-06T00:14:11;15.10;62.00
51559;DHT22;61650;48.882;2.092;2022-07-06T00:16:36;15.00;61.80
51559;DHT22;61650;48.882;2.092;2022-07-06T00:19:02;15.00;61.50
51559;DHT22;61650;48.882;2.092;2022-07-06T00:21:28;15.00;61.70
51559;DHT22;61650;48.882;2.092;2022-07-06T00:23:53;15.00;62.00
51559;DHT22;61650;48.882;2.092;2022-07-06T00:26:19;14.90;62.10
51559;DHT22;61650;48.882;2.092;2022-07-06T00:28:45;14.80;62.50
51559;DHT22;61650;48.882;2.092;2022-07-06T00:31:11;14.80;62.80
51559;DHT22;61650;48.882;2.092;2022-07-06T00:33:37;14.70;62.80
51559;DHT22;61650;48.882;2.092;2022-07-06T00:36:03;14.70;63.50
51559;DHT22;61650;48.882;2.092;2022-07-06T00:38:28;14.60;62.80
51559;DHT22;61650;48.882;2.092;2022-07-06T00:40:54;14.70;62.50
51559;DHT22;61650;48.882;2.092;2022-07-06T00:43:19;14.80;62.70
51559;DHT22;61650;48.882;2.092;2022-07-06T00:45:45;14.70;62.60
51559;DHT22;61650;48.882;2.092;2022-07-06T00:48:11;14.70;63.60
51559;DHT22;61650;48.882;2.092;2022-07-06T00:50:37;14.60;63.60
51559;DHT22;61650;48.882;2.092;2022-07-06T00:53:05;14.50;63.50
51559;DHT22;61650;48.882;2.092;2022-07-06T00:55:36;14.60;63.30
51559;DHT22;61650;48.882;2.092;2022-07-06T00:58:05;14.50;63.90
51559;DHT22;61650;48.882;2.092;2022-07-06T01:00:31;14.50;63.90
51559;DHT22;61650;48.882;2.092;2022-07-06T01:02:57;14.50;64.10
51559;DHT22;61650;48.882;2.092;2022-07-06T01:05:24;14.50;64.10
51559;DHT22;61650;48.882;2.092;2022-07-06T01:07:52;14.50;64.00
51559;DHT22;61650;48.882;2.092;2022-07-06T01:10:19;14.40;64.20
51559;DHT22;61650;48.882;2.092;2022-07-06T01:12:47;14.40;64.30
51559;DHT22;61650;48.882;2.092;2022-07-06T01:15:15;14.20;64.80
51559;DHT22;61650;48.882;2.092;2022-07-06T01:17:41;14.20;65.10
51559;DHT22;61650;48.882;2.092;2022-07-06T01:20:15;14.10;65.30
51559;DHT22;61650;48.882;2.092;2022-07-06T01:22:42;14.10;65.50
51559;DHT22;61650;48.882;2.092;2022-07-06T01:25:08;14.20;65.70
51559;DHT22;61650;48.882;2.092;2022-07-06T01:27:35;14.00;65.80
51559;DHT22;61650;48.882;2.092;2022-07-06T01:30:05;13.90;67.20
51559;DHT22;61650;48.882;2.092;2022-07-06T01:32:31;13.80;67.00
51559;DHT22;61650;48.882;2.092;2022-07-06T01:34:57;13.70;66.90
51559;DHT22;61650;48.882;2.092;2022-07-06T01:37:22;13.70;67.80
51559;DHT22;61650;48.882;2.092;2022-07-06T01:39:48;13.60;67.70
51559;DHT22;61650;48.882;2.092;2022-07-06T01:42:13;13.50;68.20
51559;DHT22;61650;48.882;2.092;2022-07-06T01:44:39;13.40;68.50
51559;DHT22;61650;48.882;2.092;2022-07-06T01:47:05;13.30;69.50
51559;DHT22;61650;48.882;2.092;2022-07-06T01:49:30;13.20;69.30
51559;DHT22;61650;48.882;2.092;2022-07-06T01:51:56;13.20;69.20
51559;DHT22;61650;48.882;2.092;2022-07-06T01:54:21;13.20;69.20
51559;DHT22;61650;48.882;2.092;2022-07-06T01:56:47;13.20;69.00
51559;DHT22;61650;48.882;2.092;2022-07-06T01:59:13;13.20;68.70
51559;DHT22;61650;48.882;2.092;2022-07-06T02:01:38;13.20;69.70
51559;DHT22;61650;48.882;2.092;2022-07-06T02:04:04;13.20;69.60
51559;DHT22;61650;48.882;2.092;2022-07-06T02:06:29;13.10;69.90
51559;DHT22;61650;48.882;2.092;2022-07-06T02:08:55;13.10;70.20
51559;DHT22;61650;48.882;2.092;2022-07-06T02:11:20;13.00;70.20
51559;DHT22;61650;48.882;2.092;2022-07-06T02:13:46;12.90;71.40
51559;DHT22;61650;48.882;2.092;2022-07-06T02:16:12;12.90;70.30
51559;DHT22;61650;48.882;2.092;2022-07-06T02:18:38;12.90;71.40
51559;DHT22;61650;48.882;2.092;2022-07-06T02:21:04;12.80;71.10
51559;DHT22;61650;48.882;2.092;2022-07-06T02:23:30;12.70;71.50
51559;DHT22;61650;48.882;2.092;2022-07-06T02:25:56;12.80;71.10
51559;DHT22;61650;48.882;2.092;2022-07-06T02:28:21;12.80;71.20
51559;DHT22;61650;48.882;2.092;2022-07-06T02:30:47;12.70;71.40
51559;DHT22;61650;48.882;2.092;2022-07-06T02:33:13;12.70;71.00
51559;DHT22;61650;48.882;2.092;2022-07-06T02:35:38;12.70;70.90
51559;DHT22;61650;48.882;2.092;2022-07-06T02:38:07;12.70;71.20
51559;DHT22;61650;48.882;2.092;2022-07-06T02:40:33;12.70;71.10
51559;DHT22;61650;48.882;2.092;2022-07-06T02:42:59;12.60;71.70
51559;DHT22;61650;48.882;2.092;2022-07-06T02:45:24;12.60;72.20
51559;DHT22;61650;48.882;2.092;2022-07-06T02:47:50;12.50;72.10
51559;DHT22;61650;48.882;2.092;2022-07-06T02:50:16;12.50;72.40
51559;DHT22;61650;48.882;2.092;2022-07-06T02:52:42;12.50;72.40
51559;DHT22;61650;48.882;2.092;2022-07-06T02:55:08;12.50;72.00
51559;DHT22;61650;48.882;2.092;2022-07-06T02:57:34;12.40;72.80
51559;DHT22;61650;48.882;2.092;2022-07-06T02:59:59;12.30;72.80
51559;DHT22;61650;48.882;2.092;2022-07-06T03:02:25;12.30;72.80
51559;DHT22;61650;48.882;2.092;2022-07-06T03:04:51;12.30;73.30
51559;DHT22;61650;48.882;2.092;2022-07-06T03:07:16;12.30;73.00
51559;DHT22;61650;48.882;2.092;2022-07-06T03:09:42;12.20;73.30
51559;DHT22;61650;48.882;2.092;2022-07-06T03:12:08;12.20;73.60
51559;DHT22;61650;48.882;2.092;2022-07-06T03:14:33;12.20;74.00
51559;DHT22;61650;48.882;2.092;2022-07-06T03:16:59;12.20;73.80
51559;DHT22;61650;48.882;2.092;2022-07-06T03:19:24;12.10;73.90
51559;DHT22;61650;48.882;2.092;2022-07-06T03:21:50;12.10;73.50
51559;DHT22;61650;48.882;2.092;2022-07-06T03:24:15;12.10;74.10
51559;DHT22;61650;48.882;2.092;2022-07-06T03:26:41;12.00;74.40
51559;DHT22;61650;48.882;2.092;2022-07-06T03:29:07;11.90;74.50
51559;DHT22;61650;48.882;2.092;2022-07-06T03:31:32;11.90;74.50
51559;DHT22;61650;48.882;2.092;2022-07-06T03:33:58;11.80;75.00
51559;DHT22;61650;48.882;2.092;2022-07-06T03:36:23;11.70;75.40
51559;DHT22;61650;48.882;2.092;2022-07-06T03:38:49;11.70;74.90
51559;DHT22;61650;48.882;2.092;2022-07-06T03:41:14;11.80;75.30
51559;DHT22;61650;48.882;2.092;2022-07-06T03:43:40;11.70;75.30
51559;DHT22;61650;48.882;2.092;2022-07-06T03:46:06;11.60;75.50
51559;DHT22;61650;48.882;2.092;2022-07-06T03:48:31;11.60;75.90
51559;DHT22;61650;48.882;2.092;2022-07-06T03:50:57;11.50;76.20
51559;DHT22;61650;48.882;2.092;2022-07-06T03:53:25;11.50;76.10
51559;DHT22;61650;48.882;2.092;2022-07-06T03:55:50;11.50;75.90
51559;DHT22;61650;48.882;2.092;2022-07-06T03:58:34;11.50;76.20
51559;DHT22;61650;48.882;2.092;2022-07-06T04:01:00;11.50;76.40
51559;DHT22;61650;48.882;2.092;2022-07-06T04:03:26;11.50;75.30
51559;DHT22;61650;48.882;2.092;2022-07-06T04:05:51;11.60;75.10
51559;DHT22;61650;48.882;2.092;2022-07-06T04:08:17;11.70;75.00
51559;DHT22;61650;48.882;2.092;2022-07-06T04:10:43;11.70;74.90
51559;DHT22;61650;48.882;2.092;2022-07-06T04:13:08;11.70;75.40
51559;DHT22;61650;48.882;2.092;2022-07-06T04:15:34;11.60;75.40
51559;DHT22;61650;48.882;2.092;2022-07-06T04:17:59;11.60;75.90
51559;DHT22;61650;48.882;2.092;2022-07-06T04:20:25;11.60;75.80
51559;DHT22;61650;48.882;2.092;2022-07-06T04:22:51;11.60;75.50
51559;DHT22;61650;48.882;2.092;2022-07-06T04:25:17;11.60;76.00
51559;DHT22;61650;48.882;2.092;2022-07-06T04:27:43;11.60;76.00
51559;DHT22;61650;48.882;2.092;2022-07-06T04:30:09;11.60;76.40
51559;DHT22;61650;48.882;2.092;2022-07-06T04:32:35;11.60;76.10
51559;DHT22;61650;48.882;2.092;2022-07-06T04:35:02;11.60;75.70
51559;DHT22;61650;48.882;2.092;2022-07-06T04:37:28;11.60;76.40
51559;DHT22;61650;48.882;2.092;2022-07-06T04:39:53;11.60;76.70
51559;DHT22;61650;48.882;2.092;2022-07-06T04:42:19;11.60;76.90
51559;DHT22;61650;48.882;2.092;2022-07-06T04:44:44;11.60;76.90
51559;DHT22;61650;48.882;2.092;2022-07-06T04:47:11;11.60;76.90
51559;DHT22;61650;48.882;2.092;2022-07-06T04:49:37;11.60;77.10
51559;DHT22;61650;48.882;2.092;2022-07-06T04:52:03;11.60;77.00
51559;DHT22;61650;48.882;2.092;2022-07-06T04:54:28;11.70;77.20
51559;DHT22;61650;48.882;2.092;2022-07-06T04:56:54;11.70;77.00
51559;DHT22;61650;48.882;2.092;2022-07-06T04:59:20;11.70;77.10
51559;DHT22;61650;48.882;2.092;2022-07-06T05:01:45;11.80;77.20
51559;DHT22;61650;48.882;2.092;2022-07-06T05:04:11;11.80;76.60
51559;DHT22;61650;48.882;2.092;2022-07-06T05:06:36;11.90;76.80
51559;DHT22;61650;48.882;2.092;2022-07-06T05:09:02;12.00;76.50
51559;DHT22;61650;48.882;2.092;2022-07-06T05:11:28;12.00;76.70
51559;DHT22;61650;48.882;2.092;2022-07-06T05:13:54;12.10;76.20
51559;DHT22;61650;48.882;2.092;2022-07-06T05:16:20;12.20;76.20
51559;DHT22;61650;48.882;2.092;2022-07-06T05:18:46;12.30;75.60
51559;DHT22;61650;48.882;2.092;2022-07-06T05:21:12;12.50;74.80
51559;DHT22;61650;48.882;2.092;2022-07-06T05:23:38;12.70;74.40
51559;DHT22;61650;48.882;2.092;2022-07-06T05:26:03;12.80;74.00
51559;DHT22;61650;48.882;2.092;2022-07-06T05:28:29;12.90;73.80
51559;DHT22;61650;48.882;2.092;2022-07-06T05:30:55;13.00;73.40
51559;DHT22;61650;48.882;2.092;2022-07-06T05:33:20;13.10;73.40
51559;DHT22;61650;48.882;2.092;2022-07-06T05:35:46;13.20;73.20
51559;DHT22;61650;48.882;2.092;2022-07-06T05:38:11;13.30;72.90
51559;DHT22;61650;48.882;2.092;2022-07-06T05:40:37;13.50;72.60
51559;DHT22;61650;48.882;2.092;2022-07-06T05:43:03;13.50;72.50
51559;DHT22;61650;48.882;2.092;2022-07-06T05:45:29;13.60;72.30
51559;DHT22;61650;48.882;2.092;2022-07-06T05:47:55;13.70;72.40
51559;DHT22;61650;48.882;2.092;2022-07-06T05:50:39;13.80;72.60
51559;DHT22;61650;48.882;2.092;2022-07-06T05:53:05;13.90;72.50
51559;DHT22;61650;48.882;2.092;2022-07-06T05:55:31;14.00;71.90
51559;DHT22;61650;48.882;2.092;2022-07-06T05:57:57;14.20;71.60
51559;DHT22;61650;48.882;2.092;2022-07-06T06:00:24;14.30;71.10
51559;DHT22;61650;48.882;2.092;2022-07-06T06:02:50;14.40;70.90
51559;DHT22;61650;48.882;2.092;2022-07-06T06:05:16;14.40;71.10
51559;DHT22;61650;48.882;2.092;2022-07-06T06:07:42;14.50;71.00
51559;DHT22;61650;48.882;2.092;2022-07-06T06:10:11;14.60;71.00
51559;DHT22;61650;48.882;2.092;2022-07-06T06:12:38;14.80;70.20
51559;DHT22;61650;48.882;2.092;2022-07-06T06:15:04;15.00;69.40
51559;DHT22;61650;48.882;2.092;2022-07-06T06:17:31;15.10;69.10
51559;DHT22;61650;48.882;2.092;2022-07-06T06:19:57;15.30;68.80
51559;DHT22;61650;48.882;2.092;2022-07-06T06:22:23;15.40;68.10
51559;DHT22;61650;48.882;2.092;2022-07-06T06:24:48;15.40;67.50
51559;DHT22;61650;48.882;2.092;2022-07-06T06:27:14;15.60;68.00
51559;DHT22;61650;48.882;2.092;2022-07-06T06:29:40;15.60;67.80
51559;DHT22;61650;48.882;2.092;2022-07-06T06:32:07;15.80;67.30
51559;DHT22;61650;48.882;2.092;2022-07-06T06:34:33;16.00;66.90
51559;DHT22;61650;48.882;2.092;2022-07-06T06:36:59;16.10;66.50
51559;DHT22;61650;48.882;2.092;2022-07-06T06:39:24;16.30;66.40
51559;DHT22;61650;48.882;2.092;2022-07-06T06:41:50;16.40;65.50
51559;DHT22;61650;48.882;2.092;2022-07-06T06:44:16;16.50;64.90
51559;DHT22;61650;48.882;2.092;2022-07-06T06:46:43;16.60;64.70
51559;DHT22;61650;48.882;2.092;2022-07-06T06:49:09;16.60;64.70
51559;DHT22;61650;48.882;2.092;2022-07-06T06:51:35;16.80;64.40
51559;DHT22;61650;48.882;2.092;2022-07-06T06:54:03;16.80;64.10
51559;DHT22;61650;48.882;2.092;2022-07-06T06:56:28;16.90;63.90
51559;DHT22;61650;48.882;2.092;2022-07-06T06:58:54;16.90;63.90
51559;DHT22;61650;48.882;2.092;2022-07-06T07:01:20;16.90;63.80
51559;DHT22;61650;48.882;2.092;2022-07-06T07:03:45;17.00;63.50
51559;DHT22;61650;48.882;2.092;2022-07-06T07:06:11;17.10;63.10
51559;DHT22;61650;48.882;2.092;2022-07-06T07:08:37;17.10;63.10
51559;DHT22;61650;48.882;2.092;2022-07-06T07:11:02;17.00;62.50
51559;DHT22;61650;48.882;2.092;2022-07-06T07:13:28;17.20;62.10
51559;DHT22;61650;48.882;2.092;2022-07-06T07:15:53;17.40;61.60
51559;DHT22;61650;48.882;2.092;2022-07-06T07:18:19;17.70;60.40
51559;DHT22;61650;48.882;2.092;2022-07-06T07:20:45;17.70;60.10
51559;DHT22;61650;48.882;2.092;2022-07-06T07:23:10;17.60;58.90
51559;DHT22;61650;48.882;2.092;2022-07-06T07:25:36;17.50;58.50
51559;DHT22;61650;48.882;2.092;2022-07-06T07:28:04;17.40;58.00
51559;DHT22;61650;48.882;2.092;2022-07-06T07:30:29;17.40;58.10
51559;DHT22;61650;48.882;2.092;2022-07-06T07:32:55;17.40;58.80
51559;DHT22;61650;48.882;2.092;2022-07-06T07:35:24;17.50;59.10
51559;DHT22;61650;48.882;2.092;2022-07-06T07:37:49;17.60;58.70
51559;DHT22;61650;48.882;2.092;2022-07-06T07:40:15;17.70;56.30
51559;DHT22;61650;48.882;2.092;2022-07-06T07:42:43;17.90;56.60
51559;DHT22;61650;48.882;2.092;2022-07-06T07:45:11;18.20;56.30
51559;DHT22;61650;48.882;2.092;2022-07-06T07:47:37;18.10;55.40
51559;DHT22;61650;48.882;2.092;2022-07-06T07:50:03;18.10;54.80
51559;DHT22;61650;48.882;2.092;2022-07-06T07:52:29;18.20;56.00
51559;DHT22;61650;48.882;2.092;2022-07-06T07:54:55;18.40;54.80
51559;DHT22;61650;48.882;2.092;2022-07-06T07:57:20;18.80;54.50
51559;DHT22;61650;48.882;2.092;2022-07-06T07:59:46;19.10;52.50
51559;DHT22;61650;48.882;2.092;2022-07-06T08:02:11;18.80;53.20
51559;DHT22;61650;48.882;2.092;2022-07-06T08:04:37;18.80;52.90
51559;DHT22;61650;48.882;2.092;2022-07-06T08:07:03;18.70;50.60
51559;DHT22;61650;48.882;2.092;2022-07-06T08:09:28;18.60;51.80
51559;DHT22;61650;48.882;2.092;2022-07-06T08:11:54;18.60;52.40
51559;DHT22;61650;48.882;2.092;2022-07-06T08:14:20;18.70;53.00
51559;DHT22;61650;48.882;2.092;2022-07-06T08:16:45;18.90;52.70
51559;DHT22;61650;48.882;2.092;2022-07-06T08:19:11;18.90;52.90
51559;DHT22;61650;48.882;2.092;2022-07-06T08:21:40;19.00;52.20
51559;DHT22;61650;48.882;2.092;2022-07-06T08:24:06;19.00;52.50
51559;DHT22;61650;48.882;2.092;2022-07-06T08:26:32;19.00;52.20
51559;DHT22;61650;48.882;2.092;2022-07-06T08:28:58;19.10;52.00
51559;DHT22;61650;48.882;2.092;2022-07-06T08:31:25;19.20;51.80
51559;DHT22;61650;48.882;2.092;2022-07-06T08:33:53;19.30;52.20
51559;DHT22;61650;48.882;2.092;2022-07-06T08:36:19;19.40;52.10
51559;DHT22;61650;48.882;2.092;2022-07-06T08:38:45;19.40;52.40
51559;DHT22;61650;48.882;2.092;2022-07-06T08:41:12;19.50;51.80
51559;DHT22;61650;48.882;2.092;2022-07-06T08:43:38;19.40;51.60
51559;DHT22;61650;48.882;2.092;2022-07-06T08:46:04;19.30;51.50
51559;DHT22;61650;48.882;2.092;2022-07-06T08:48:35;19.40;52.60
51559;DHT22;61650;48.882;2.092;2022-07-06T08:51:01;19.90;52.20
51559;DHT22;61650;48.882;2.092;2022-07-06T08:53:28;20.30;51.80
51559;DHT22;61650;48.882;2.092;2022-07-06T08:55:54;20.30;51.80
51559;DHT22;61650;48.882;2.092;2022-07-06T08:58:23;20.40;51.80
51559;DHT22;61650;48.882;2.092;2022-07-06T09:00:49;20.40;51.90
51559;DHT22;61650;48.882;2.092;2022-07-06T09:03:14;20.50;52.00
51559;DHT22;61650;48.882;2.092;2022-07-06T09:05:41;20.50;51.30
51559;DHT22;61650;48.882;2.092;2022-07-06T09:08:08;20.40;51.70
51559;DHT22;61650;48.882;2.092;2022-07-06T09:10:33;20.60;51.20
51559;DHT22;61650;48.882;2.092;2022-07-06T09:13:08;20.60;51.10
51559;DHT22;61650;48.882;2.092;2022-07-06T09:15:35;20.70;50.50
51559;DHT22;61650;48.882;2.092;2022-07-06T09:18:02;20.80;51.10
51559;DHT22;61650;48.882;2.092;2022-07-06T09:20:32;20.90;50.90
51559;DHT22;61650;48.882;2.092;2022-07-06T09:23:04;21.00;50.60
51559;DHT22;61650;48.882;2.092;2022-07-06T09:25:31;20.90;49.10
51559;DHT22;61650;48.882;2.092;2022-07-06T09:27:58;20.60;49.10
51559;DHT22;61650;48.882;2.092;2022-07-06T09:30:25;20.60;49.50
51559;DHT22;61650;48.882;2.092;2022-07-06T09:32:53;20.60;48.60
51559;DHT22;61650;48.882;2.092;2022-07-06T09:35:36;20.70;49.40
51559;DHT22;61650;48.882;2.092;2022-07-06T09:38:07;20.90;49.10
51559;DHT22;61650;48.882;2.092;2022-07-06T09:40:38;20.80;48.40
51559;DHT22;61650;48.882;2.092;2022-07-06T09:43:10;20.70;48.60
51559;DHT22;61650;48.882;2.092;2022-07-06T09:45:38;20.70;48.00
51559;DHT22;61650;48.882;2.092;2022-07-06T09:48:21;20.90;48.70
51559;DHT22;61650;48.882;2.092;2022-07-06T09:50:55;21.10;47.30
51559;DHT22;61650;48.882;2.092;2022-07-06T09:53:23;21.10;47.20
51559;DHT22;61650;48.882;2.092;2022-07-06T09:55:51;21.50;48.10
51559;DHT22;61650;48.882;2.092;2022-07-06T09:58:18;21.90;47.00
51559;DHT22;61650;48.882;2.092;2022-07-06T10:00:45;21.90;47.40
51559;DHT22;61650;48.882;2.092;2022-07-06T10:03:12;21.80;46.60
51559;DHT22;61650;48.882;2.092;2022-07-06T10:05:39;21.60;47.30
51559;DHT22;61650;48.882;2.092;2022-07-06T10:08:07;21.50;47.80
51559;DHT22;61650;48.882;2.092;2022-07-06T10:10:35;21.60;48.30
51559;DHT22;61650;48.882;2.092;2022-07-06T10:13:01;21.80;47.70
51559;DHT22;61650;48.882;2.092;2022-07-06T10:15:30;22.00;47.40
51559;DHT22;61650;48.882;2.092;2022-07-06T10:18:00;22.10;46.40
51559;DHT22;61650;48.882;2.092;2022-07-06T10:20:31;22.30;46.30
51559;DHT22;61650;48.882;2.092;2022-07-06T10:23:05;22.50;46.50
51559;DHT22;61650;48.882;2.092;2022-07-06T10:25:32;22.50;46.60
51559;DHT22;61650;48.882;2.092;2022-07-06T10:27:58;22.40;45.90
51559;DHT22;61650;48.882;2.092;2022-07-06T10:30:25;22.10;47.00
51559;DHT22;61650;48.882;2.092;2022-07-06T10:32:51;21.80;46.50
51559;DHT22;61650;48.882;2.092;2022-07-06T10:35:20;21.90;47.20
51559;DHT22;61650;48.882;2.092;2022-07-06T10:38:06;22.10;47.10
51559;DHT22;61650;48.882;2.092;2022-07-06T10:40:36;22.20;45.80
51559;DHT22;61650;48.882;2.092;2022-07-06T10:43:21;22.10;46.10
51559;DHT22;61650;48.882;2.092;2022-07-06T10:50:39;22.80;45.20
51559;DHT22;61650;48.882;2.092;2022-07-06T10:55:49;22.90;45.20
51559;DHT22;61650;48.882;2.092;2022-07-06T10:58:38;23.00;45.40
51559;DHT22;61650;48.882;2.092;2022-07-06T11:01:06;23.00;42.90
51559;DHT22;61650;48.882;2.092;2022-07-06T11:03:44;22.80;43.10
51559;DHT22;61650;48.882;2.092;2022-07-06T11:06:20;22.70;44.90
51559;DHT22;61650;48.882;2.092;2022-07-06T11:08:54;22.40;42.30
51559;DHT22;61650;48.882;2.092;2022-07-06T11:14:02;22.70;44.20
51559;DHT22;61650;48.882;2.092;2022-07-06T11:16:29;22.70;44.80
51559;DHT22;61650;48.882;2.092;2022-07-06T11:19:13;22.90;44.10
51559;DHT22;61650;48.882;2.092;2022-07-06T11:24:15;23.30;43.70
51559;DHT22;61650;48.882;2.092;2022-07-06T11:26:43;23.50;43.60
51559;DHT22;61650;48.882;2.092;2022-07-06T11:29:11;23.70;42.80
51559;DHT22;61650;48.882;2.092;2022-07-06T11:31:42;23.70;41.80
51559;DHT22;61650;48.882;2.092;2022-07-06T11:34:10;23.60;43.40
51559;DHT22;61650;48.882;2.092;2022-07-06T11:36:37;23.60;42.60
51559;DHT22;61650;48.882;2.092;2022-07-06T11:39:04;23.20;42.10
51559;DHT22;61650;48.882;2.092;2022-07-06T11:41:33;22.90;43.30
51559;DHT22;61650;48.882;2.092;2022-07-06T11:43:59;22.90;42.70
51559;DHT22;61650;48.882;2.092;2022-07-06T11:46:26;23.00;43.10
51559;DHT22;61650;48.882;2.092;2022-07-06T11:48:54;23.40;42.80
51559;DHT22;61650;48.882;2.092;2022-07-06T11:51:21;23.80;42.40
51559;DHT22;61650;48.882;2.092;2022-07-06T11:53:49;24.30;41.90
51559;DHT22;61650;48.882;2.092;2022-07-06T11:56:16;24.50;41.00
51559;DHT22;61650;48.882;2.092;2022-07-06T11:58:45;24.70;41.80
51559;DHT22;61650;48.882;2.092;2022-07-06T12:01:13;24.30;41.70
51559;DHT22;61650;48.882;2.092;2022-07-06T12:03:40;24.20;42.10
51559;DHT22;61650;48.882;2.092;2022-07-06T12:06:10;24.30;40.60
51559;DHT22;61650;48.882;2.092;2022-07-06T12:09:03;24.60;42.00
51559;DHT22;61650;48.882;2.092;2022-07-06T12:11:33;25.20;38.90
51559;DHT22;61650;48.882;2.092;2022-07-06T12:14:01;25.60;40.30
51559;DHT22;61650;48.882;2.092;2022-07-06T12:16:34;26.10;38.20
51559;DHT22;61650;48.882;2.092;2022-07-06T12:19:01;26.70;35.90
51559;DHT22;61650;48.882;2.092;2022-07-06T12:21:27;26.90;37.20
51559;DHT22;61650;48.882;2.092;2022-07-06T12:23:53;27.90;37.00
51559;DHT22;61650;48.882;2.092;2022-07-06T12:26:21;28.30;36.70
51559;DHT22;61650;48.882;2.092;2022-07-06T12:29:07;29.10;35.90
51559;DHT22;61650;48.882;2.092;2022-07-06T12:31:43;29.60;33.80
51559;DHT22;61650;48.882;2.092;2022-07-06T12:34:14;29.90;33.90
51559;DHT22;61650;48.882;2.092;2022-07-06T12:36:54;29.00;34.50
51559;DHT22;61650;48.882;2.092;2022-07-06T12:39:23;28.10;33.50
51559;DHT22;61650;48.882;2.092;2022-07-06T12:42:00;28.50;34.80
51559;DHT22;61650;48.882;2.092;2022-07-06T12:44:26;28.40;34.40
51559;DHT22;61650;48.882;2.092;2022-07-06T12:47:09;28.80;34.70
51559;DHT22;61650;48.882;2.092;2022-07-06T12:49:37;27.80;34.00
51559;DHT22;61650;48.882;2.092;2022-07-06T12:52:15;25.90;37.30
51559;DHT22;61650;48.882;2.092;2022-07-06T12:54:50;25.30;38.60
51559;DHT22;61650;48.882;2.092;2022-07-06T12:57:17;25.50;38.00
51559;DHT22;61650;48.882;2.092;2022-07-06T13:00:02;27.10;36.20
51559;DHT22;61650;48.882;2.092;2022-07-06T13:05:07;29.20;33.70
51559;DHT22;61650;48.882;2.092;2022-07-06T13:07:36;28.90;33.20
51559;DHT22;61650;48.882;2.092;2022-07-06T13:10:07;29.30;33.70
51559;DHT22;61650;48.882;2.092;2022-07-06T13:12:33;29.40;32.20
51559;DHT22;61650;48.882;2.092;2022-07-06T13:14:59;28.90;33.40
51559;DHT22;61650;48.882;2.092;2022-07-06T13:17:24;29.30;33.10
51559;DHT22;61650;48.882;2.092;2022-07-06T13:19:50;29.60;32.60
51559;DHT22;61650;48.882;2.092;2022-07-06T13:22:16;29.80;33.00
51559;DHT22;61650;48.882;2.092;2022-07-06T13:24:42;30.00;32.50
51559;DHT22;61650;48.882;2.092;2022-07-06T13:27:08;29.80;32.50
51559;DHT22;61650;48.882;2.092;2022-07-06T13:29:34;30.10;32.00
51559;DHT22;61650;48.882;2.092;2022-07-06T13:31:59;29.30;32.00
51559;DHT22;61650;48.882;2.092;2022-07-06T13:34:25;28.50;32.60
51559;DHT22;61650;48.882;2.092;2022-07-06T13:36:51;27.90;33.20
51559;DHT22;61650;48.882;2.092;2022-07-06T13:39:18;27.70;33.30
51559;DHT22;61650;48.882;2.092;2022-07-06T13:41:43;27.60;33.60
51559;DHT22;61650;48.882;2.092;2022-07-06T13:44:09;27.50;33.80
51559;DHT22;61650;48.882;2.092;2022-07-06T13:46:37;27.20;33.50
51559;DHT22;61650;48.882;2.092;2022-07-06T13:49:04;27.00;33.90
51559;DHT22;61650;48.882;2.092;2022-07-06T13:51:30;27.20;33.60
51559;DHT22;61650;48.882;2.092;2022-07-06T13:53:58;27.30;34.20
51559;DHT22;61650;48.882;2.092;2022-07-06T13:56:24;27.50;34.10
51559;DHT22;61650;48.882;2.092;2022-07-06T13:58:50;27.50;33.80
51559;DHT22;61650;48.882;2.092;2022-07-06T14:01:16;27.40;33.40
51559;DHT22;61650;48.882;2.092;2022-07-06T14:03:42;26.50;34.20
51559;DHT22;61650;48.882;2.092;2022-07-06T14:06:08;26.70;34.60
51559;DHT22;61650;48.882;2.092;2022-07-06T14:08:35;26.90;34.20
51559;DHT22;61650;48.882;2.092;2022-07-06T14:11:02;27.10;34.60
51559;DHT22;61650;48.882;2.092;2022-07-06T14:13:28;27.10;34.40
51559;DHT22;61650;48.882;2.092;2022-07-06T14:15:54;26.80;34.30
51559;DHT22;61650;48.882;2.092;2022-07-06T14:18:20;26.70;34.50
51559;DHT22;61650;48.882;2.092;2022-07-06T14:20:46;26.70;34.70
51559;DHT22;61650;48.882;2.092;2022-07-06T14:23:14;26.50;34.50
51559;DHT22;61650;48.882;2.092;2022-07-06T14:25:40;26.40;34.30
51559;DHT22;61650;48.882;2.092;2022-07-06T14:28:06;26.50;35.00
51559;DHT22;61650;48.882;2.092;2022-07-06T14:30:35;26.60;35.00
51559;DHT22;61650;48.882;2.092;2022-07-06T14:33:06;26.60;35.10
51559;DHT22;61650;48.882;2.092;2022-07-06T14:35:37;26.70;35.20
51559;DHT22;61650;48.882;2.092;2022-07-06T14:38:04;26.80;35.60
51559;DHT22;61650;48.882;2.092;2022-07-06T14:40:30;26.90;34.10
51559;DHT22;61650;48.882;2.092;2022-07-06T14:42:56;26.80;34.50
51559;DHT22;61650;48.882;2.092;2022-07-06T14:45:22;26.50;34.80
51559;DHT22;61650;48.882;2.092;2022-07-06T14:47:48;26.40;35.30
51559;DHT22;61650;48.882;2.092;2022-07-06T14:50:13;26.50;35.10
51559;DHT22;61650;48.882;2.092;2022-07-06T14:52:39;26.50;35.20
51559;DHT22;61650;48.882;2.092;2022-07-06T14:55:05;26.40;35.20
51559;DHT22;61650;48.882;2.092;2022-07-06T14:57:30;26.50;35.30
51559;DHT22;61650;48.882;2.092;2022-07-06T14:59:56;26.40;35.20
51559;DHT22;61650;48.882;2.092;2022-07-06T15:02:22;26.30;35.50
51559;DHT22;61650;48.882;2.092;2022-07-06T15:04:47;26.40;36.00
51559;DHT22;61650;48.882;2.092;2022-07-06T15:07:14;26.40;36.50
51559;DHT22;61650;48.882;2.092;2022-07-06T15:09:40;26.50;36.00
51559;DHT22;61650;48.882;2.092;2022-07-06T15:12:06;26.60;36.00
51559;DHT22;61650;48.882;2.092;2022-07-06T15:14:32;26.80;36.00
51559;DHT22;61650;48.882;2.092;2022-07-06T15:16:58;26.60;35.70
51559;DHT22;61650;48.882;2.092;2022-07-06T15:19:24;26.40;36.00
51559;DHT22;61650;48.882;2.092;2022-07-06T15:21:50;26.30;36.10
51559;DHT22;61650;48.882;2.092;2022-07-06T15:24:16;26.40;36.50
51559;DHT22;61650;48.882;2.092;2022-07-06T15:26:42;26.50;35.90
51559;DHT22;61650;48.882;2.092;2022-07-06T15:29:07;26.50;35.70
51559;DHT22;61650;48.882;2.092;2022-07-06T15:31:33;26.20;35.50
51559;DHT22;61650;48.882;2.092;2022-07-06T15:33:59;26.10;36.30
51559;DHT22;61650;48.882;2.092;2022-07-06T15:36:24;26.20;36.10
51559;DHT22;61650;48.882;2.092;2022-07-06T15:38:50;26.20;36.10
51559;DHT22;61650;48.882;2.092;2022-07-06T15:41:16;26.20;36.10
51559;DHT22;61650;48.882;2.092;2022-07-06T15:43:41;26.10;35.70
51559;DHT22;61650;48.882;2.092;2022-07-06T15:46:07;25.90;35.90